Melgaco, Brazil
Current Conditions -  °F | °C
As of 4:00 AM on Tuesday 21 Oct 2014 (Local Time) from SBMQ Reporting Station
Clear Clear  
Wind Chill: 79°   Ceiling: Unl
Heat Index: 82°   Visibility: 6mi
Dew Point: 75°   Wind: 3mph
Humidity: 89%   Direction: 20°NNE
Pressure: 29.8"   Gusts: NA
Location:  1.78°S, 50.73°W
Report Text: SBMQ 210700Z 02003KT CAVOK 26/24 Q1009
Loading
Personal Weather Stations






























Interactive Weather Map
Tropical Storm Tracking
New forecast layout! Learn more

10-Day Weather Forecast

Advertisements
Track Severe Weather on mobile